Time;durP1;ratioP1;P1;durP2;ratioP2;P2;SDS_P1;SDS_P2;PMS_P1;PMS_P2;Temp;Humidity;BMP_temperature;BMP_pressure;BME280_temperature;BME280_humidity;BME280_pressure;Samples;Min_cycle;Max_cycle;Signal;HPM_P1;HPM_P2
2024/02/15 00:01:16;;;;;;;5.53;3.53;;;;;;;7.42;100.00;100854.00;4952851;28;20067;-71
2024/02/15 00:03:42;;;;;;;4.70;3.13;;;;;;;7.36;100.00;100859.66;4958334;28;20101;-70
2024/02/15 00:06:07;;;;;;;6.60;3.50;;;;;;;7.40;100.00;100859.06;4964500;28;20498;-70
2024/02/15 00:08:34;;;;;;;5.05;3.10;;;;;;;7.38;100.00;100852.06;4932919;29;20578;-70
2024/02/15 00:11:00;;;;;;;5.03;2.80;;;;;;;7.39;100.00;100857.28;4950269;28;20530;-71
2024/02/15 00:13:25;;;;;;;5.93;2.83;;;;;;;7.44;100.00;100857.56;4958386;28;20047;-71
2024/02/15 00:15:52;;;;;;;6.55;3.00;;;;;;;7.47;100.00;100850.00;4960197;28;20027;-70
2024/02/15 00:18:18;;;;;;;5.03;2.88;;;;;;;7.49;100.00;100848.41;4963280;28;20407;-70
2024/02/15 00:20:46;;;;;;;4.03;2.67;;;;;;;7.45;100.00;100851.59;4958745;28;20046;-71
2024/02/15 00:23:12;;;;;;;4.65;2.45;;;;;;;7.44;100.00;100847.28;4955931;28;20590;-73
2024/02/15 00:25:39;;;;;;;4.00;2.65;;;;;;;6.88;100.00;100769.72;4984882;28;20072;-71
2024/02/15 00:28:05;;;;;;;3.17;2.20;;;;;;;7.37;100.00;100850.31;4988494;28;20041;-71
2024/02/15 00:30:31;;;;;;;4.28;2.33;;;;;;;7.43;100.00;100863.50;4984005;28;20045;-71
2024/02/15 00:32:56;;;;;;;3.47;2.20;;;;;;;7.42;100.00;100854.00;4990304;28;20030;-71
2024/02/15 00:35:22;;;;;;;4.10;2.13;;;;;;;7.35;100.00;100857.03;4990043;28;20052;-69
2024/02/15 00:37:49;;;;;;;5.22;2.50;;;;;;;7.27;100.00;100844.63;4977066;28;20035;-72
2024/02/15 00:40:15;;;;;;;3.67;2.15;;;;;;;7.29;100.00;100850.75;4990236;28;20088;-70
2024/02/15 00:42:40;;;;;;;4.40;2.15;;;;;;;6.80;100.00;100760.69;4989663;28;20035;-74
2024/02/15 00:45:08;;;;;;;4.60;2.33;;;;;;;7.29;100.00;100849.88;4989971;28;20438;-71
2024/02/15 00:47:34;;;;;;;4.03;2.17;;;;;;;7.29;100.00;100853.31;4990502;28;20022;-72
2024/02/15 00:50:00;;;;;;;3.75;2.35;;;;;;;7.18;100.00;100823.59;4990155;28;20049;-71
2024/02/15 00:52:25;;;;;;;3.20;2.15;;;;;;;7.25;100.00;100859.09;4989891;28;20069;-76
2024/02/15 00:54:51;;;;;;;2.58;1.90;;;;;;;7.24;100.00;100852.19;4985532;28;20038;-71
2024/02/15 00:57:17;;;;;;;3.50;2.30;;;;;;;7.20;100.00;100846.78;4989831;28;20042;-70
2024/02/15 00:59:44;;;;;;;2.85;1.95;;;;;;;7.22;100.00;100852.91;4980295;28;20056;-70
2024/02/15 01:02:09;;;;;;;2.45;1.63;;;;;;;7.17;100.00;100844.91;4989673;28;20037;-76
2024/02/15 01:04:35;;;;;;;3.22;2.05;;;;;;;7.15;100.00;100827.66;4990015;28;20031;-72
2024/02/15 01:07:00;;;;;;;2.45;1.95;;;;;;;6.80;100.00;100768.38;4990391;28;20647;-71
2024/02/15 01:09:26;;;;;;;2.33;1.77;;;;;;;7.17;100.00;100841.47;4977189;28;20046;-72
2024/02/15 01:11:51;;;;;;;2.70;1.90;;;;;;;6.99;100.00;100807.94;4989610;28;20509;-71
2024/02/15 01:14:17;;;;;;;3.67;2.05;;;;;;;7.17;100.00;100832.09;4989522;28;20088;-75
2024/02/15 01:16:44;;;;;;;2.75;1.80;;;;;;;7.15;100.00;100822.53;4990156;28;20027;-71
2024/02/15 01:19:09;;;;;;;4.57;2.08;;;;;;;7.12;100.00;100834.38;4989487;28;20436;-71
2024/02/15 01:21:35;;;;;;;4.18;2.08;;;;;;;6.63;100.00;100754.63;4989374;28;20185;-69
2024/02/15 01:24:00;;;;;;;2.90;1.90;;;;;;;7.01;100.00;100829.44;4989640;28;20412;-70
2024/02/15 01:26:27;;;;;;;2.83;1.77;;;;;;;6.94;100.00;100825.63;4989780;28;20065;-70
2024/02/15 01:28:53;;;;;;;2.17;1.67;;;;;;;6.53;100.00;100742.03;4989363;28;20038;-71
2024/02/15 01:31:18;;;;;;;3.08;2.00;;;;;;;7.06;100.00;100822.88;4989826;28;20030;-72
2024/02/15 01:33:45;;;;;;;4.15;1.88;;;;;;;6.66;100.00;100746.22;4989797;28;20041;-71
2024/02/15 01:36:17;;;;;;;3.13;2.05;;;;;;;7.07;100.00;100825.53;4990251;28;20106;-71
2024/02/15 01:38:43;;;;;;;2.38;1.70;;;;;;;7.07;100.00;100835.81;4989422;28;20066;-70
2024/02/15 01:41:09;;;;;;;2.67;1.67;;;;;;;7.01;100.00;100824.31;4993658;28;20089;-71
2024/02/15 01:43:35;;;;;;;2.90;1.95;;;;;;;7.06;100.00;100835.72;4979038;28;20525;-70
2024/02/15 01:46:07;;;;;;;3.70;2.20;;;;;;;7.06;100.00;100840.88;4989561;28;20038;-75
2024/02/15 01:48:33;;;;;;;2.90;1.58;;;;;;;7.01;100.00;100829.44;4989572;28;20061;-71
2024/02/15 01:50:59;;;;;;;2.53;1.92;;;;;;;7.07;100.00;100840.06;4989454;28;20062;-72
2024/02/15 01:53:26;;;;;;;3.03;1.95;;;;;;;6.71;100.00;100773.00;4991211;28;20046;-71
2024/02/15 01:55:55;;;;;;;3.35;1.85;;;;;;;7.03;100.00;100825.28;4982375;28;20418;-71
2024/02/15 01:58:21;;;;;;;2.70;1.98;;;;;;;7.11;100.00;100837.75;4988700;28;20117;-72
2024/02/15 02:00:48;;;;;;;2.55;1.60;;;;;;;7.10;100.00;100843.69;4989431;28;20177;-69
2024/02/15 02:03:15;;;;;;;3.22;1.98;;;;;;;7.06;100.00;100843.44;5011897;28;20022;-71
2024/02/15 02:05:42;;;;;;;2.45;1.55;;;;;;;7.02;100.00;100837.22;4989061;28;20042;-71
2024/02/15 02:08:09;;;;;;;3.30;1.75;;;;;;;6.88;100.00;100818.47;4988726;28;20038;-69
2024/02/15 02:10:41;;;;;;;2.50;1.58;;;;;;;6.79;100.00;100808.56;4980247;28;20406;-71
2024/02/15 02:13:06;;;;;;;1.98;1.55;;;;;;;6.99;100.00;100849.91;4989580;28;20031;-70
2024/02/15 02:15:32;;;;;;;1.88;1.50;;;;;;;6.87;100.00;100823.53;4992390;28;20033;-69
2024/02/15 02:18:01;;;;;;;4.75;1.30;;;;;;;6.92;100.00;100848.66;4992762;28;20081;-71
2024/02/15 02:20:27;;;;;;;2.70;1.77;;;;;;;6.87;100.00;100826.97;4991993;28;20050;-70
2024/02/15 02:22:56;;;;;;;1.40;1.30;;;;;;;6.94;100.00;100853.88;5000443;28;20047;-71
2024/02/15 02:25:25;;;;;;;;;;;;;;;6.90;100.00;100846.78;5001830;28;20030;-70
2024/02/15 02:27:51;;;;;;;2.83;1.10;;;;;;;6.83;100.00;100845.56;4992577;28;20093;-70
2024/02/15 02:30:18;;;;;;;4.03;1.52;;;;;;;6.80;100.00;100856.53;4992526;28;20296;-71
2024/02/15 02:32:46;;;;;;;2.85;1.30;;;;;;;6.81;100.00;100854.84;4992534;28;20466;-70
2024/02/15 02:35:13;;;;;;;2.40;1.60;;;;;;;6.67;100.00;100837.75;4992332;28;20045;-71
2024/02/15 02:37:39;;;;;;;3.90;1.48;;;;;;;6.32;100.00;100778.47;4992173;28;20041;-71
2024/02/15 02:40:08;;;;;;;1.92;1.30;;;;;;;6.79;100.00;100871.81;4992299;28;20027;-74
2024/02/15 02:43:00;;;;;;;2.00;1.50;;;;;;;6.80;100.00;100863.34;4992179;28;20065;-71
2024/02/15 02:45:26;;;;;;;2.00;1.40;;;;;;;6.81;100.00;100867.69;4991484;28;20023;-73
2024/02/15 02:47:52;;;;;;;2.30;1.52;;;;;;;6.86;100.00;100868.81;4979687;28;20034;-72
2024/02/15 02:50:19;;;;;;;1.90;1.40;;;;;;;6.88;100.00;100869.81;4979623;28;20449;-72
2024/02/15 02:52:44;;;;;;;3.60;1.67;;;;;;;6.88;100.00;100868.91;4979158;28;20049;-72
2024/02/15 02:55:11;;;;;;;1.80;1.58;;;;;;;6.84;100.00;100869.53;4982833;28;20035;-71
2024/02/15 02:57:38;;;;;;;2.72;1.73;;;;;;;6.83;100.00;100862.63;4979530;28;20042;-75
2024/02/15 03:00:12;;;;;;;2.83;1.80;;;;;;;6.84;100.00;100867.88;4963268;28;20034;-72
2024/02/15 03:02:41;;;;;;;3.35;2.10;;;;;;;6.81;100.00;100872.81;4979174;28;20460;-70
2024/02/15 03:05:08;;;;;;;3.65;2.35;;;;;;;6.84;100.00;100873.00;4952973;28;20035;-70
2024/02/15 03:07:34;;;;;;;3.25;2.00;;;;;;;6.84;100.00;100864.41;4979560;28;20514;-72
2024/02/15 03:10:01;;;;;;;3.20;2.05;;;;;;;6.81;100.00;100867.69;4976783;28;20208;-73
2024/02/15 03:12:27;;;;;;;2.50;1.90;;;;;;;6.77;100.00;100855.47;4980805;28;20031;-72
2024/02/15 03:14:55;;;;;;;3.38;2.20;;;;;;;6.78;100.00;100855.56;4975913;28;20041;-72
2024/02/15 03:17:20;;;;;;;3.15;2.17;;;;;;;6.00;100.00;100733.84;4987086;28;20442;-71
2024/02/15 03:19:48;;;;;;;3.58;2.58;;;;;;;6.75;100.00;100869.88;4989844;28;20121;-74
2024/02/15 03:22:14;;;;;;;3.85;2.40;;;;;;;6.78;100.00;100864.94;4992105;28;20038;-72
2024/02/15 03:24:40;;;;;;;3.38;2.35;;;;;;;6.78;100.00;100854.69;4991196;28;20041;-73
2024/02/15 03:27:05;;;;;;;2.90;2.20;;;;;;;6.82;100.00;100869.44;5007768;28;20085;-72
2024/02/15 03:29:31;;;;;;;4.43;2.17;;;;;;;6.40;100.00;100792.59;4989858;28;20037;-72
2024/02/15 03:31:56;;;;;;;4.03;2.50;;;;;;;6.42;100.00;100785.03;4991615;28;20036;-71
2024/02/15 03:34:23;;;;;;;4.47;2.40;;;;;;;6.45;100.00;100790.31;4990130;28;20034;-71
2024/02/15 03:36:53;;;;;;;4.50;2.55;;;;;;;6.80;100.00;100850.50;4991541;28;20092;-71
2024/02/15 03:39:19;;;;;;;5.60;2.47;;;;;;;6.82;100.00;100859.19;4990871;28;20036;-70
2024/02/15 03:41:45;;;;;;;4.38;2.55;;;;;;;6.84;100.00;100867.88;4991039;28;20105;-72
2024/02/15 03:44:12;;;;;;;3.40;2.30;;;;;;;6.83;100.00;100871.22;4990864;28;20044;-73
2024/02/15 03:46:38;;;;;;;3.78;2.50;;;;;;;6.78;100.00;100867.50;4986675;28;20038;-72
2024/02/15 03:49:03;;;;;;;5.15;2.03;;;;;;;6.73;100.00;100867.22;4991183;28;20043;-72
2024/02/15 03:51:29;;;;;;;5.40;3.17;;;;;;;6.68;100.00;100871.22;4990943;28;20402;-73
2024/02/15 03:53:54;;;;;;;6.00;2.72;;;;;;;6.59;100.00;100865.53;4991637;28;20470;-71
2024/02/15 03:56:22;;;;;;;4.40;2.90;;;;;;;6.50;100.00;100862.41;4980521;28;20481;-72
2024/02/15 03:58:50;;;;;;;4.53;3.15;;;;;;;6.04;100.00;100791.31;4990970;28;20482;-71
2024/02/15 04:01:16;;;;;;;4.88;2.80;;;;;;;6.51;100.00;100866.75;4990952;28;20505;-72
2024/02/15 04:03:42;;;;;;;4.05;2.88;;;;;;;6.41;100.00;100858.50;4991051;28;20034;-76
2024/02/15 04:06:07;;;;;;;4.50;2.90;;;;;;;6.47;100.00;100856.31;4991307;28;20509;-72
2024/02/15 04:08:33;;;;;;;5.13;3.05;;;;;;;6.42;100.00;100867.09;4990679;28;20172;-72
2024/02/15 04:10:59;;;;;;;5.03;3.38;;;;;;;6.39;100.00;100864.34;4990676;28;20134;-72
2024/02/15 04:13:25;;;;;;;4.53;3.03;;;;;;;6.24;100.00;100847.25;4990148;28;20046;-72
2024/02/15 04:15:52;;;;;;;4.57;3.08;;;;;;;6.05;100.00;100821.28;4990489;28;20061;-72
2024/02/15 04:18:19;;;;;;;5.22;3.13;;;;;;;6.28;100.00;100855.97;4990161;28;20489;-72
2024/02/15 04:20:46;;;;;;;5.95;3.33;;;;;;;6.36;100.00;100877.00;4990250;28;20060;-73
2024/02/15 04:23:13;;;;;;;4.80;3.30;;;;;;;6.39;100.00;100872.94;4990348;28;20525;-73
2024/02/15 04:25:38;;;;;;;6.72;3.63;;;;;;;6.34;100.00;100883.69;4990352;28;20092;-72
2024/02/15 04:28:04;;;;;;;7.25;3.95;;;;;;;6.29;100.00;100870.59;4990867;28;20034;-73
2024/02/15 04:30:30;;;;;;;7.18;3.75;;;;;;;6.27;100.00;100875.63;4990091;28;20030;-71
2024/02/15 04:32:56;;;;;;;6.72;3.75;;;;;;;6.24;100.00;100879.69;4990234;28;20035;-72
2024/02/15 04:35:22;;;;;;;6.03;3.92;;;;;;;6.16;100.00;100876.66;4989880;28;20026;-72
2024/02/15 04:37:51;;;;;;;6.30;3.78;;;;;;;6.10;100.00;100879.72;4989353;28;20031;-72
2024/02/15 04:40:18;;;;;;;6.47;4.57;;;;;;;5.96;100.00;100863.44;4999239;28;20042;-71
2024/02/15 04:42:45;;;;;;;6.80;4.18;;;;;;;6.01;100.00;100871.47;5002715;28;20073;-72
2024/02/15 04:45:11;;;;;;;6.32;3.97;;;;;;;6.10;100.00;100884.84;4990213;28;20566;-72
2024/02/15 04:47:36;;;;;;;6.72;4.32;;;;;;;5.63;100.00;100808.44;4989909;28;20022;-73
2024/02/15 04:50:03;;;;;;;5.97;3.75;;;;;;;6.10;100.00;100900.22;4991127;28;20069;-73
2024/02/15 04:52:29;;;;;;;5.65;3.60;;;;;;;6.12;100.00;100883.25;4989731;28;20490;-74
2024/02/15 04:54:55;;;;;;;6.72;4.18;;;;;;;6.20;100.00;100893.97;4990203;28;20040;-72
2024/02/15 04:57:21;;;;;;;8.88;4.18;;;;;;;6.05;100.00;100901.63;4989653;28;20141;-73
2024/02/15 04:59:48;;;;;;;7.40;4.32;;;;;;;5.99;100.00;100907.25;4990417;28;20026;-71
2024/02/15 05:02:14;;;;;;;12.55;5.07;;;;;;;5.89;100.00;100902.28;4990715;28;20027;-72
2024/02/15 05:04:42;;;;;;;7.43;5.00;;;;;;;5.67;100.00;100892.41;4989927;28;20417;-72
2024/02/15 05:07:08;;;;;;;7.35;4.65;;;;;;;5.33;100.00;100900.44;4986427;28;20496;-73
2024/02/15 05:09:35;;;;;;;8.30;4.55;;;;;;;4.89;100.00;100909.53;4990746;28;20037;-73
2024/02/15 05:12:02;;;;;;;8.63;5.32;;;;;;;4.88;100.00;100920.56;4989564;28;20039;-72
2024/02/15 05:14:28;;;;;;;8.05;5.43;;;;;;;4.98;100.00;100912.69;4988645;28;20034;-72
2024/02/15 05:16:54;;;;;;;8.98;5.80;;;;;;;5.04;100.00;100925.03;4989765;28;20399;-73
2024/02/15 05:19:19;;;;;;;8.15;5.13;;;;;;;5.17;100.00;100924.16;4974803;28;20030;-75
2024/02/15 05:21:46;;;;;;;11.75;6.35;;;;;;;5.28;100.00;100936.03;4989060;28;20047;-73
2024/02/15 05:24:16;;;;;;;9.05;5.78;;;;;;;5.27;100.00;100925.66;4989940;28;20026;-76
2024/02/15 05:26:43;;;;;;;9.95;7.40;;;;;;;5.39;100.00;100930.69;4990036;28;20033;-75
2024/02/15 05:29:11;;;;;;;26.42;7.45;;;;;;;5.49;100.00;100938.19;4999366;28;20565;-73
2024/02/15 05:31:37;;;;;;;12.05;6.40;;;;;;;5.58;100.00;100941.34;4989741;28;20036;-73
2024/02/15 05:34:07;;;;;;;11.30;6.45;;;;;;;5.49;100.00;100938.19;4989577;28;20561;-74
2024/02/15 05:36:33;;;;;;;11.25;6.43;;;;;;;4.99;100.00;100865.00;4974320;28;20031;-76
2024/02/15 05:38:59;;;;;;;10.95;6.65;;;;;;;5.43;100.00;100954.06;4988744;28;20490;-71
2024/02/15 05:41:25;;;;;;;9.25;5.85;;;;;;;5.36;100.00;100954.44;4989403;28;20034;-71
2024/02/15 05:43:53;;;;;;;9.73;6.07;;;;;;;5.28;100.00;100961.63;4989454;28;20030;-71
2024/02/15 05:46:22;;;;;;;11.88;6.18;;;;;;;4.64;100.00;100866.09;4979534;28;20506;-72
2024/02/15 05:48:48;;;;;;;10.32;6.50;;;;;;;5.13;100.00;100955.47;4991287;28;20042;-73
2024/02/15 05:51:15;;;;;;;9.30;6.10;;;;;;;5.17;100.00;100970.22;4989695;28;20429;-72
2024/02/15 05:53:41;;;;;;;9.75;6.22;;;;;;;5.18;100.00;100964.31;4987868;28;20042;-72
2024/02/15 05:56:07;;;;;;;9.13;6.70;;;;;;;5.19;100.00;100963.56;4987959;28;20045;-73
2024/02/15 05:58:33;;;;;;;11.43;6.13;;;;;;;5.32;100.00;100975.47;4989751;28;20065;-73
2024/02/15 06:01:04;;;;;;;10.63;6.55;;;;;;;4.94;100.00;100895.38;4985655;28;20058;-73
2024/02/15 06:03:33;;;;;;;11.60;7.20;;;;;;;5.27;100.00;100956.38;4986207;28;20486;-72
2024/02/15 06:05:59;;;;;;;10.43;5.93;;;;;;;5.40;100.00;100983.69;4986508;28;20121;-72
2024/02/15 06:08:29;;;;;;;10.35;6.45;;;;;;;5.24;100.00;100964.75;4989475;28;20149;-73
2024/02/15 06:10:55;;;;;;;12.45;5.80;;;;;;;5.28;100.00;100970.94;4993317;28;20069;-71
2024/02/15 06:13:22;;;;;;;9.80;6.15;;;;;;;5.30;100.00;100985.63;4991704;28;20042;-73
2024/02/15 06:15:52;;;;;;;14.75;7.82;;;;;;;5.32;100.00;100986.63;4991929;28;20042;-73
2024/02/15 06:18:38;;;;;;;16.00;8.05;;;;;;;5.30;100.00;101000.97;4990529;28;20030;-72
2024/02/15 06:21:03;;;;;;;12.57;7.13;;;;;;;5.24;100.00;100985.22;4991253;28;20502;-72
2024/02/15 06:23:29;;;;;;;11.35;7.47;;;;;;;5.46;100.00;101009.72;4989089;28;20038;-71
2024/02/15 06:25:58;;;;;;;21.35;10.07;;;;;;;5.57;100.00;100988.25;4984337;28;20089;-71
2024/02/15 06:39:41;;;;;;;11.57;6.95;;;;;;;6.11;100.00;101013.91;4991864;28;20625;-72
2024/02/15 06:42:17;;;;;;;10.43;6.88;;;;;;;6.22;100.00;101012.91;4992865;28;20050;-76
2024/02/15 06:44:44;;;;;;;14.90;8.15;;;;;;;6.03;100.00;100958.69;4992202;28;20498;-71
2024/02/15 06:47:11;;;;;;;9.18;6.90;;;;;;;6.37;100.00;101014.66;4983615;28;20081;-72
2024/02/15 06:49:40;;;;;;;12.43;7.28;;;;;;;6.49;100.00;101012.84;4991975;28;20030;-72
2024/02/15 06:52:07;;;;;;;12.67;7.10;;;;;;;6.49;100.00;101015.41;4980463;28;20038;-72
2024/02/15 06:54:35;;;;;;;9.88;7.00;;;;;;;6.38;100.00;100978.88;4998396;28;20486;-72
2024/02/15 06:57:02;;;;;;;14.25;7.05;;;;;;;6.55;100.00;101002.97;4988688;28;20038;-71
2024/02/15 06:59:28;;;;;;;13.48;6.35;;;;;;;6.48;100.00;100981.19;4991057;28;20395;-71
2024/02/15 07:01:55;;;;;;;10.75;6.53;;;;;;;6.73;100.00;100992.06;4992699;28;20053;-73
2024/02/15 07:04:20;;;;;;;12.63;6.80;;;;;;;6.73;100.00;100972.44;4991867;28;20061;-72
2024/02/15 07:06:49;;;;;;;11.13;6.43;;;;;;;7.00;100.00;101003.09;4991602;28;20057;-72
2024/02/15 07:09:15;;;;;;;10.63;6.18;;;;;;;7.09;100.00;101007.91;4987255;28;20085;-78
2024/02/15 07:11:41;;;;;;;9.75;6.18;;;;;;;6.86;100.00;100957.78;4991250;28;20026;-72
2024/02/15 07:14:08;;;;;;;8.80;5.75;;;;;;;7.21;100.00;101018.03;4991682;28;20029;-72
2024/02/15 07:16:34;;;;;;;13.20;6.97;;;;;;;7.25;100.00;101014.84;4992598;28;20096;-72
2024/02/15 07:19:01;;;;;;;11.48;6.90;;;;;;;7.24;100.00;101003.69;4991460;28;20483;-72
2024/02/15 07:21:27;;;;;;;10.32;6.18;;;;;;;7.22;100.00;101015.56;4991208;28;20104;-71
2024/02/15 07:23:56;;;;;;;8.38;5.47;;;;;;;7.14;100.00;101001.38;4991648;28;20038;-71
2024/02/15 07:26:24;;;;;;;;;;;;;;;7.24;100.00;101019.09;4990974;28;20030;-72
2024/02/15 07:28:59;;;;;;;7.95;5.63;;;;;;;7.33;100.00;101012.72;4990818;28;19917;-71
2024/02/15 07:31:29;;;;;;;10.07;6.28;;;;;;;7.32;100.00;101013.53;4989275;28;20034;-72
2024/02/15 07:33:54;;;;;;;11.45;6.35;;;;;;;6.92;100.00;100937.63;4989910;28;20041;-71
2024/02/15 07:36:24;;;;;;;10.93;5.82;;;;;;;7.24;100.00;100998.56;4991221;28;20026;-72
2024/02/15 07:38:50;;;;;;;8.30;5.07;;;;;;;7.40;100.00;101002.91;4991141;28;20549;-70
2024/02/15 07:41:22;;;;;;;8.95;5.25;;;;;;;7.35;100.00;100998.28;4988119;28;20417;-70
2024/02/15 07:43:48;;;;;;;7.10;4.22;;;;;;;7.44;100.00;101014.25;4990918;28;20046;-71
2024/02/15 07:46:16;;;;;;;11.90;6.07;;;;;;;7.55;100.00;101014.88;4991179;28;20034;-71
2024/02/15 07:48:46;;;;;;;10.02;5.40;;;;;;;7.66;100.00;101015.50;4988028;28;20486;-70
2024/02/15 07:51:15;;;;;;;12.82;5.60;;;;;;;7.76;100.00;101013.53;4991348;28;20095;-73
2024/02/15 07:53:42;;;;;;;9.00;5.25;;;;;;;7.82;100.00;101000.13;4990877;28;20065;-72
2024/02/15 07:56:08;;;;;;;11.02;5.65;;;;;;;8.02;100.00;101008.97;4990847;28;20038;-71
2024/02/15 07:58:34;;;;;;;11.43;6.03;;;;;;;8.12;100.00;101002.66;4979327;28;20122;-72
2024/02/15 08:00:59;;;;;;;11.60;5.80;;;;;;;8.17;100.00;101002.91;4974890;28;20134;-71
2024/02/15 08:03:29;;;;;;;11.55;6.35;;;;;;;8.31;100.00;101001.09;4978461;28;20047;-73
2024/02/15 08:05:55;;;;;;;7.93;5.18;;;;;;;8.39;100.00;101002.41;4980781;28;20108;-70
2024/02/15 08:08:21;;;;;;;8.82;5.50;;;;;;;8.13;100.00;100946.97;4960683;28;20061;-71
2024/02/15 08:10:48;;;;;;;12.90;5.30;;;;;;;8.02;100.00;100930.97;4977671;28;20067;-72
2024/02/15 08:13:15;;;;;;;9.95;5.30;;;;;;;8.36;100.00;101000.56;4954812;28;20128;-70
2024/02/15 08:15:40;;;;;;;11.90;5.45;;;;;;;8.45;100.00;100997.59;4978709;28;20556;-70
2024/02/15 08:18:09;;;;;;;10.60;5.22;;;;;;;8.37;100.00;101002.34;4974791;28;20122;-71
2024/02/15 08:20:34;;;;;;;10.68;4.78;;;;;;;8.27;100.00;101005.19;4975980;28;20086;-71
2024/02/15 08:23:00;;;;;;;10.32;5.18;;;;;;;8.21;100.00;101004.84;4966076;28;20626;-72
2024/02/15 08:25:25;;;;;;;9.50;5.10;;;;;;;8.13;100.00;100999.28;4973856;28;20134;-72
2024/02/15 08:27:51;;;;;;;9.50;4.85;;;;;;;7.71;100.00;100939.53;4976153;28;20039;-72
2024/02/15 08:30:17;;;;;;;9.25;4.90;;;;;;;8.23;100.00;101006.69;4976705;28;20093;-71
2024/02/15 08:32:43;;;;;;;7.97;4.60;;;;;;;8.36;100.00;101002.22;4989440;28;20035;-71
2024/02/15 08:35:10;;;;;;;9.45;4.95;;;;;;;7.99;100.00;100911.09;4990452;28;20034;-71
2024/02/15 08:37:36;;;;;;;9.48;4.40;;;;;;;8.51;100.00;100985.09;4990126;28;20045;-71
2024/02/15 08:40:13;;;;;;;10.55;4.75;;;;;;;8.69;99.50;101000.63;4990156;28;20031;-72
2024/02/15 08:42:43;;;;;;;7.25;4.50;;;;;;;8.83;99.06;101003.03;4988590;28;20073;-73
2024/02/15 08:45:12;;;;;;;9.48;4.85;;;;;;;8.80;98.68;100997.72;4990333;28;20498;-71
2024/02/15 08:47:42;;;;;;;6.07;4.03;;;;;;;8.67;98.62;101002.25;4989604;28;20500;-72
2024/02/15 08:50:10;;;;;;;;;;;;;;;8.66;99.86;100999.56;4990278;28;20045;-75
2024/02/15 08:52:39;;;;;;;7.03;4.30;;;;;;;8.71;99.02;101014.47;4989732;28;19913;-71
2024/02/15 08:55:14;;;;;;;8.85;5.85;;;;;;;8.68;99.51;101011.72;4980099;28;20503;-73
2024/02/15 08:57:56;;;;;;;7.13;4.38;;;;;;;8.74;98.45;101011.16;4976256;28;20157;-72
2024/02/15 09:00:22;;;;;;;11.18;5.70;;;;;;;8.66;99.92;101015.00;4977224;28;20122;-72
2024/02/15 09:02:48;;;;;;;7.50;4.90;;;;;;;8.66;99.93;101010.78;4981209;28;20042;-71
2024/02/15 09:05:15;;;;;;;8.07;5.30;;;;;;;8.86;98.65;101006.66;4975433;28;20125;-72
2024/02/15 09:07:42;;;;;;;11.50;4.70;;;;;;;8.97;99.46;101019.22;4976108;28;20046;-72
2024/02/15 09:10:10;;;;;;;9.88;5.38;;;;;;;8.94;99.10;100985.59;4976014;28;20130;-76
2024/02/15 09:12:39;;;;;;;10.30;4.75;;;;;;;8.66;99.90;100896.59;4949004;28;20038;-71
2024/02/15 09:15:08;;;;;;;8.37;5.10;;;;;;;9.26;97.94;100986.34;4979456;28;20031;-69
2024/02/15 09:17:45;;;;;;;7.88;4.75;;;;;;;8.79;97.80;100916.16;4977588;28;20287;-72
2024/02/15 09:20:15;;;;;;;9.77;5.13;;;;;;;8.95;98.81;100957.34;4976007;28;20059;-70
2024/02/15 09:22:51;;;;;;;7.72;4.72;;;;;;;8.99;98.29;100959.25;4960838;28;20054;-72
2024/02/15 09:25:18;;;;;;;8.48;4.90;;;;;;;9.29;98.19;100995.09;4948692;28;20134;-72
2024/02/15 09:27:45;;;;;;;6.55;4.13;;;;;;;9.28;96.93;100992.47;4946656;28;20468;-72
2024/02/15 09:30:12;;;;;;;6.20;4.45;;;;;;;9.23;96.91;100990.53;4957153;28;20054;-70
2024/02/15 09:32:39;;;;;;;6.40;4.03;;;;;;;9.35;96.60;100995.41;4939328;29;20054;-71
2024/02/15 09:35:08;;;;;;;6.22;4.15;;;;;;;9.25;96.32;100992.31;4947877;29;20134;-73
2024/02/15 09:37:43;;;;;;;6.55;4.35;;;;;;;9.18;96.26;100968.81;4938080;29;20047;-70
2024/02/15 09:40:11;;;;;;;7.20;4.15;;;;;;;9.55;97.12;100983.50;4939600;29;20648;-72
2024/02/15 09:42:38;;;;;;;6.85;4.35;;;;;;;9.88;98.01;100991.13;4942923;29;20051;-70
2024/02/15 09:45:05;;;;;;;6.47;4.95;;;;;;;9.96;96.24;100959.69;4918752;29;20139;-71
2024/02/15 09:47:36;;;;;;;6.90;4.38;;;;;;;9.92;94.52;100988.69;4937151;29;20521;-70
2024/02/15 09:50:06;;;;;;;9.73;4.50;;;;;;;9.74;95.41;100984.41;4941458;29;20150;-72
2024/02/15 09:52:35;;;;;;;8.50;4.60;;;;;;;10.00;97.44;100984.78;4936955;29;20075;-70
2024/02/15 09:55:03;;;;;;;7.43;4.85;;;;;;;10.03;94.27;100987.50;4924172;29;20714;-70
2024/02/15 09:57:31;;;;;;;7.25;3.85;;;;;;;9.88;94.13;100967.94;4981240;28;20038;-71
2024/02/15 09:59:58;;;;;;;6.15;4.57;;;;;;;9.72;94.65;100975.75;4977334;28;20058;-72
2024/02/15 10:02:24;;;;;;;8.95;4.75;;;;;;;9.90;94.04;100982.59;4972412;28;20044;-69
2024/02/15 10:04:50;;;;;;;7.18;4.47;;;;;;;9.94;94.68;100975.06;4992904;28;20046;-73
2024/02/15 10:07:18;;;;;;;6.65;4.40;;;;;;;9.99;93.93;100975.28;4992647;28;20022;-71
2024/02/15 10:09:43;;;;;;;6.55;4.78;;;;;;;9.92;95.55;100958.66;4989208;28;20030;-73
2024/02/15 10:12:09;;;;;;;7.13;4.43;;;;;;;9.70;95.06;100936.09;4992612;28;20041;-69
2024/02/15 10:14:35;;;;;;;6.63;4.22;;;;;;;9.75;94.49;100967.28;4991264;28;20078;-71
2024/02/15 10:17:11;;;;;;;7.80;4.82;;;;;;;9.89;95.19;100968.81;4992109;28;20030;-71
2024/02/15 10:19:38;;;;;;;6.40;4.03;;;;;;;10.10;94.07;100963.78;4988163;28;20042;-71
2024/02/15 10:22:08;;;;;;;6.45;4.20;;;;;;;10.09;93.56;100951.69;4988858;28;20034;-73
2024/02/15 10:24:35;;;;;;;8.82;4.95;;;;;;;10.19;93.59;100969.38;5011074;28;20033;-71
2024/02/15 10:27:06;;;;;;;6.18;4.78;;;;;;;10.25;93.18;100962.72;5007190;28;20038;-74
2024/02/15 10:29:35;;;;;;;8.18;4.50;;;;;;;9.67;92.68;100874.06;4986657;28;20035;-73
2024/02/15 10:32:04;;;;;;;7.33;4.30;;;;;;;9.87;93.14;100936.91;4989069;28;20037;-74
2024/02/15 10:34:31;;;;;;;6.88;4.60;;;;;;;9.58;93.55;100892.56;4985780;28;20030;-71
2024/02/15 10:37:13;;;;;;;7.43;4.15;;;;;;;9.73;93.58;100937.94;4985972;28;20061;-70
2024/02/15 10:39:40;;;;;;;9.02;4.70;;;;;;;9.79;94.22;100948.56;4987145;28;20046;-70
2024/02/15 10:42:11;;;;;;;8.75;4.03;;;;;;;9.97;95.87;100959.75;4992199;28;20506;-71
2024/02/15 10:44:38;;;;;;;7.53;4.72;;;;;;;9.95;94.33;100940.72;4991995;28;20034;-76
2024/02/15 10:47:07;;;;;;;6.40;4.80;;;;;;;10.19;93.42;100953.91;4992823;28;20022;-70
2024/02/15 10:49:34;;;;;;;7.35;4.10;;;;;;;10.40;93.19;100950.53;4992048;28;20069;-74
2024/02/15 10:52:04;;;;;;;5.30;3.97;;;;;;;10.74;93.27;100934.00;4992000;28;20030;-71
2024/02/15 10:54:52;;;;;;;7.05;4.20;;;;;;;10.57;91.85;100875.56;4991890;28;20142;-71
2024/02/15 10:57:26;;;;;;;7.22;4.05;;;;;;;10.94;90.00;100949.44;5015303;28;20037;-70
2024/02/15 11:00:21;;;;;;;7.95;4.70;;;;;;;10.67;88.96;100934.53;4944159;29;20066;-70
2024/02/15 11:02:58;;;;;;;5.57;3.55;;;;;;;10.79;90.34;100941.94;4940859;28;20114;-71
2024/02/15 11:05:24;;;;;;;6.50;3.78;;;;;;;10.86;90.28;100940.50;4943949;29;20051;-71
2024/02/15 11:07:50;;;;;;;5.13;3.63;;;;;;;11.11;89.64;100940.72;4938828;29;20047;-71
2024/02/15 11:10:17;;;;;;;9.07;4.57;;;;;;;11.28;89.83;100932.81;4951330;29;20043;-70
2024/02/15 11:12:43;;;;;;;7.03;4.32;;;;;;;11.49;90.62;100933.69;4944219;29;20102;-71
2024/02/15 11:15:11;;;;;;;9.38;4.88;;;;;;;11.51;87.63;100928.56;4935618;29;20046;-70
2024/02/15 11:17:39;;;;;;;6.78;4.30;;;;;;;11.64;86.62;100932.53;4944347;29;20047;-70
2024/02/15 11:20:10;;;;;;;8.18;3.60;;;;;;;11.76;87.04;100922.69;4948285;29;20091;-76
2024/02/15 11:22:36;;;;;;;6.07;4.00;;;;;;;11.78;87.18;100918.44;4946685;29;20035;-71
2024/02/15 11:25:08;;;;;;;6.30;4.20;;;;;;;11.86;86.26;100921.31;4944521;29;20111;-72
2024/02/15 11:27:37;;;;;;;6.93;4.45;;;;;;;11.81;87.61;100881.47;4943897;29;20031;-72
2024/02/15 11:30:09;;;;;;;7.43;3.90;;;;;;;11.86;86.85;100923.03;4938641;29;20422;-76
2024/02/15 11:32:47;;;;;;;7.05;4.63;;;;;;;11.64;86.22;100910.13;4937394;29;20027;-71
2024/02/15 11:35:20;;;;;;;8.35;4.38;;;;;;;11.57;86.17;100902.09;4929891;29;20042;-70
2024/02/15 11:40:18;;;;;;;5.82;4.13;;;;;;;11.53;86.25;100893.31;4991493;28;20121;-70
2024/02/15 11:42:44;;;;;;;7.88;3.72;;;;;;;11.79;87.07;100912.44;4988579;28;20451;-73